createdAt,value
2018-11-20T00:02:14.910Z,5.90
2018-11-20T00:05:01.606Z,8.87
2018-11-20T00:07:48.441Z,7.03
2018-11-20T00:10:35.271Z,7.40
2018-11-20T00:13:22.743Z,6.90
2018-11-20T00:16:11.045Z,8.13
2018-11-20T00:19:08.077Z,6.00
2018-11-20T00:22:01.916Z,15.53
2018-11-20T00:24:41.766Z,8.80
2018-11-20T00:27:29.840Z,5.93
2018-11-20T00:30:20.802Z,9.53
2018-11-20T00:32:59.515Z,7.60
2018-11-20T00:35:59.967Z,10.80
2018-11-20T00:38:46.739Z,8.50
2018-11-20T00:41:40.994Z,10.80
2018-11-20T00:44:31.849Z,11.50
2018-11-20T00:47:18.352Z,11.40
2018-11-20T00:50:12.135Z,8.90
2018-11-20T00:52:54.374Z,10.73
2018-11-20T00:56:10.482Z,12.00
2018-11-20T00:58:48.713Z,10.83
2018-11-20T01:01:42.577Z,13.00
2018-11-20T01:04:29.483Z,9.60
2018-11-20T01:07:17.685Z,9.60
2018-11-20T01:10:04.360Z,11.70
2018-11-20T01:12:43.118Z,10.37
2018-11-20T01:15:23.331Z,10.20
2018-11-20T01:18:09.468Z,11.13
2018-11-20T01:21:01.363Z,14.33
2018-11-20T01:24:01.558Z,13.23
2018-11-20T01:26:47.168Z,13.47
2018-11-20T01:29:45.080Z,9.90
2018-11-20T01:32:32.478Z,15.17
2018-11-20T01:35:31.707Z,10.90
2018-11-20T01:38:18.671Z,10.93
2018-11-20T01:40:56.832Z,14.23
2018-11-20T01:43:45.091Z,11.73
2018-11-20T01:46:44.072Z,11.63
2018-11-20T01:49:38.177Z,15.67
2018-11-20T01:52:35.661Z,15.40
2018-11-20T01:55:42.626Z,18.40
2018-11-20T01:58:26.905Z,13.50
2018-11-20T02:01:12.392Z,15.37
2018-11-20T02:04:00.630Z,16.50
2018-11-20T02:06:54.393Z,16.03
2018-11-20T02:09:41.247Z,21.43
2018-11-20T02:12:35.551Z,14.97
2018-11-20T02:15:23.782Z,12.67
2018-11-20T02:18:31.290Z,15.63
2018-11-20T02:21:18.007Z,17.50
2018-11-20T02:24:04.713Z,21.40
2018-11-20T02:26:51.610Z,20.47
2018-11-20T02:29:36.068Z,21.20
2018-11-20T02:32:34.421Z,21.17
2018-11-20T02:35:17.727Z,26.63
2018-11-20T02:38:04.733Z,21.93
2018-11-20T02:40:51.790Z,23.97
2018-11-20T02:43:38.452Z,19.50
2018-11-20T02:46:25.384Z,23.07
2018-11-20T02:49:12.255Z,34.93
2018-11-20T02:52:03.201Z,27.43
2018-11-20T02:54:50.401Z,21.33
2018-11-20T02:57:31.576Z,21.17
2018-11-20T03:00:25.352Z,22.97
2018-11-20T03:03:03.044Z,26.27
2018-11-20T03:06:00.303Z,24.73
2018-11-20T03:08:43.639Z,30.47
2018-11-20T03:11:24.628Z,20.87
2018-11-20T03:14:18.659Z,30.27
2018-11-20T03:17:05.537Z,28.80
2018-11-20T03:19:53.732Z,28.43
2018-11-20T03:22:40.421Z,24.07
2018-11-20T03:25:58.660Z,34.13
2018-11-20T03:29:01.800Z,35.70
2018-11-20T03:31:59.162Z,26.63
2018-11-20T03:34:45.868Z,35.10
2018-11-20T03:37:21.791Z,25.77
2018-11-20T03:40:08.647Z,27.03
2018-11-20T03:42:56.148Z,34.63
2018-11-20T03:45:53.601Z,23.13
2018-11-20T03:48:47.799Z,36.97
2018-11-20T03:51:42.944Z,32.40
2018-11-20T03:54:31.124Z,30.93
2018-11-20T03:57:18.102Z,35.90
2018-11-20T04:00:00.655Z,33.70
2018-11-20T04:02:47.468Z,16.90
2018-11-20T04:05:32.449Z,27.40
2018-11-20T04:08:19.481Z,36.87
2018-11-20T04:11:06.335Z,34.90
2018-11-20T04:13:44.734Z,31.10
2018-11-20T04:16:32.897Z,33.20
2018-11-20T04:19:19.815Z,33.60
2018-11-20T04:22:10.768Z,24.30
2018-11-20T04:24:57.988Z,28.57
2018-11-20T04:27:44.036Z,25.30
2018-11-20T04:31:11.277Z,25.07
2018-11-20T04:34:05.732Z,35.20
2018-11-20T04:36:52.227Z,29.50
2018-11-20T04:39:40.369Z,21.23
2018-11-20T04:42:27.165Z,36.43
2018-11-20T04:45:18.263Z,27.73
2018-11-20T04:47:58.812Z,37.33
2018-11-20T04:50:38.309Z,35.20
2018-11-20T04:53:19.019Z,29.77
2018-11-20T04:56:11.129Z,20.47
2018-11-20T04:58:48.852Z,27.30
2018-11-20T05:01:37.029Z,28.93
2018-11-20T05:04:17.963Z,32.80
2018-11-20T05:07:06.187Z,34.30
2018-11-20T05:09:51.495Z,31.23
2018-11-20T05:12:38.430Z,31.43
2018-11-20T05:15:25.413Z,25.23
2018-11-20T05:18:12.649Z,31.47
2018-11-20T05:20:53.890Z,24.77
2018-11-20T05:23:51.073Z,27.23
2018-11-20T05:26:54.408Z,31.40
2018-11-20T05:29:46.046Z,31.83
2018-11-20T05:32:29.835Z,29.33
2018-11-20T05:35:10.475Z,30.53
2018-11-20T05:38:13.909Z,31.97
2018-11-20T05:41:01.951Z,23.23
2018-11-20T05:43:44.585Z,24.13
2018-11-20T05:46:31.190Z,27.53
2018-11-20T05:49:37.791Z,26.40
2018-11-20T05:52:26.024Z,28.93
2018-11-20T05:55:25.978Z,24.93
2018-11-20T05:58:13.019Z,30.77
2018-11-20T06:01:10.611Z,25.60
2018-11-20T06:03:56.787Z,24.53
2018-11-20T06:06:53.839Z,25.87
2018-11-20T06:09:53.910Z,28.40
2018-11-20T06:12:38.422Z,24.17
2018-11-20T06:15:25.317Z,31.83
2018-11-20T06:18:19.086Z,26.73
2018-11-20T06:21:25.246Z,23.33
2018-11-20T06:24:19.294Z,26.60
2018-11-20T06:27:02.459Z,30.23
2018-11-20T06:30:00.107Z,31.97
2018-11-20T06:32:46.834Z,31.77
2018-11-20T06:35:39.043Z,28.50
2018-11-20T06:38:25.625Z,34.43
2018-11-20T06:41:12.811Z,24.27
2018-11-20T06:44:17.000Z,29.50
2018-11-20T06:46:58.517Z,34.23
2018-11-20T06:49:46.012Z,30.57
2018-11-20T06:52:52.241Z,38.80
2018-11-20T06:55:39.751Z,26.27
2018-11-20T06:58:22.678Z,31.47
2018-11-20T07:01:03.235Z,32.03
2018-11-20T07:03:51.469Z,28.80
2018-11-20T07:06:48.639Z,34.93
2018-11-20T07:09:40.300Z,38.30
2018-11-20T07:12:26.522Z,35.90
2018-11-20T07:15:04.434Z,33.30
2018-11-20T07:17:58.503Z,35.77
2018-11-20T07:20:49.507Z,29.57
2018-11-20T07:23:35.413Z,36.60
2018-11-20T07:26:29.805Z,16.03
2018-11-20T07:29:26.872Z,33.20
2018-11-20T07:32:08.298Z,33.40
2018-11-20T07:34:51.029Z,27.33
2018-11-20T07:37:48.193Z,35.30
2018-11-20T07:40:28.122Z,34.90
2018-11-20T07:43:16.339Z,33.90
2018-11-20T07:49:26.091Z,26.30
2018-11-20T07:52:15.109Z,30.53
2018-11-20T07:55:06.149Z,29.03
2018-11-20T07:57:47.087Z,38.73
2018-11-20T08:00:37.876Z,26.47
2018-11-20T08:03:19.840Z,34.90
2018-11-20T08:06:20.352Z,33.23
2018-11-20T08:09:08.489Z,37.13
2018-11-20T08:11:55.527Z,38.80
2018-11-20T08:14:43.830Z,32.73
2018-11-20T08:17:44.385Z,32.50
2018-11-20T08:20:31.285Z,31.90
2018-11-20T08:23:18.828Z,29.67
2018-11-20T08:26:03.467Z,31.50
2018-11-20T08:29:06.844Z,32.07
2018-11-20T08:31:58.675Z,31.10
2018-11-20T08:34:52.644Z,29.37
2018-11-20T08:37:34.665Z,38.70
2018-11-20T08:40:21.472Z,50.60
2018-11-20T08:43:10.022Z,32.17
2018-11-20T08:46:03.980Z,31.60
2018-11-20T08:48:50.661Z,44.47
2018-11-20T08:51:31.401Z,35.43
2018-11-20T08:54:18.336Z,34.60
2018-11-20T08:57:03.199Z,36.67
2018-11-20T08:59:50.135Z,35.90
2018-11-20T09:02:55.579Z,35.83
2018-11-20T09:05:52.611Z,27.30
2018-11-20T09:08:40.609Z,36.40
2018-11-20T09:11:24.579Z,35.60
2018-11-20T09:14:10.112Z,34.80
2018-11-20T09:17:01.091Z,34.53
2018-11-20T09:19:49.313Z,31.80
2018-11-20T09:22:34.892Z,35.73
2018-11-20T09:25:28.823Z,34.50
2018-11-20T09:28:12.284Z,38.00
2018-11-20T09:31:00.436Z,35.60
2018-11-20T09:33:39.146Z,40.83
2018-11-20T09:36:29.936Z,42.03
2018-11-20T09:39:27.556Z,34.23
2018-11-20T09:42:14.589Z,30.57
2018-11-20T09:45:25.447Z,48.00
2018-11-20T09:48:21.143Z,39.77
2018-11-20T09:51:01.966Z,35.60
2018-11-20T09:53:50.253Z,36.13
2018-11-20T09:56:38.425Z,39.03
2018-11-20T09:59:22.629Z,44.20
2018-11-20T10:02:02.602Z,36.23
2018-11-20T10:04:46.158Z,44.90
2018-11-20T10:07:35.375Z,29.30
2018-11-20T10:10:23.901Z,31.00
2018-11-20T10:13:11.493Z,37.13
2018-11-20T10:16:13.903Z,35.73
2018-11-20T10:18:58.396Z,36.00
2018-11-20T10:21:52.664Z,39.43
2018-11-20T10:24:47.536Z,29.47
2018-11-20T10:27:36.665Z,37.73
2018-11-20T10:30:15.833Z,28.30
2018-11-20T10:33:09.305Z,41.20
2018-11-20T10:35:57.721Z,34.23
2018-11-20T10:41:50.322Z,33.53
2018-11-20T10:44:37.210Z,49.47
2018-11-20T10:47:25.262Z,50.17
2018-11-20T10:50:40.919Z,44.60
2018-11-20T10:53:19.423Z,40.90
2018-11-20T10:56:06.293Z,40.03
2018-11-20T10:59:11.082Z,38.17
2018-11-20T11:01:57.981Z,45.13
2018-11-20T11:04:45.354Z,40.70
2018-11-20T11:07:48.715Z,37.70
2018-11-20T11:10:27.589Z,40.23
2018-11-20T11:13:14.637Z,33.50
2018-11-20T11:16:13.062Z,41.13
2018-11-20T11:19:18.982Z,38.30
2018-11-20T11:22:05.786Z,32.73
2018-11-20T11:24:54.374Z,36.83
2018-11-20T11:27:45.640Z,27.23
2018-11-20T11:30:23.456Z,36.27
2018-11-20T11:33:26.808Z,46.30
2018-11-20T11:36:05.777Z,40.80
2018-11-20T11:38:53.411Z,38.87
2018-11-20T11:41:40.676Z,37.53
2018-11-20T11:44:27.645Z,43.03
2018-11-20T11:47:15.886Z,37.83
2018-11-20T11:50:14.175Z,42.17
2018-11-20T11:53:03.887Z,39.67
2018-11-20T11:55:50.791Z,33.13
2018-11-20T11:58:41.956Z,32.60
2018-11-20T12:04:31.832Z,35.00
2018-11-20T12:07:38.137Z,39.90
2018-11-20T12:10:26.396Z,43.07
2018-11-20T12:16:14.362Z,41.53
2018-11-20T12:19:05.337Z,49.00
2018-11-20T12:21:53.106Z,32.87
2018-11-20T12:24:34.714Z,51.33
2018-11-20T12:27:25.789Z,42.53
2018-11-20T12:30:23.271Z,40.47
2018-11-20T12:33:10.004Z,33.60
2018-11-20T12:36:03.110Z,48.80
2018-11-20T12:38:52.481Z,40.27
2018-11-20T12:41:49.469Z,34.60
2018-11-20T12:44:38.368Z,39.93
2018-11-20T12:47:25.211Z,37.13
2018-11-20T12:50:11.784Z,43.70
2018-11-20T12:53:00.454Z,35.17
2018-11-20T12:55:59.789Z,52.77
2018-11-20T12:58:50.531Z,44.20
2018-11-20T13:01:57.466Z,47.47
2018-11-20T13:04:44.485Z,38.33
2018-11-20T13:07:23.129Z,35.43
2018-11-20T13:10:11.958Z,33.97
2018-11-20T13:13:05.969Z,40.27
2018-11-20T13:15:58.410Z,38.57
2018-11-20T13:18:42.045Z,36.07
2018-11-20T13:21:29.618Z,38.90
2018-11-20T13:24:16.457Z,54.20
2018-11-20T13:27:04.922Z,37.43
2018-11-20T13:29:59.003Z,41.17
2018-11-20T13:32:49.144Z,40.97
2018-11-20T13:35:36.205Z,42.30
2018-11-20T13:38:35.248Z,45.23
2018-11-20T13:42:05.769Z,47.83
2018-11-20T13:44:47.149Z,39.10
2018-11-20T13:47:34.115Z,44.83
2018-11-20T13:50:14.964Z,41.53
2018-11-20T13:53:01.916Z,36.37
2018-11-20T13:55:48.682Z,36.80
2018-11-20T13:58:49.113Z,37.10
2018-11-20T14:01:37.259Z,46.60
2018-11-20T14:04:26.655Z,38.00
2018-11-20T14:07:13.487Z,41.07
2018-11-20T14:09:54.850Z,43.30
2018-11-20T14:12:41.742Z,41.90
2018-11-20T14:15:31.111Z,38.47
2018-11-20T14:18:52.917Z,46.43
2018-11-20T14:21:36.992Z,44.20
2018-11-20T14:24:27.883Z,44.83
2018-11-20T14:27:15.411Z,46.03
2018-11-20T14:29:52.807Z,45.67
2018-11-20T14:32:52.579Z,55.10
2018-11-20T14:35:38.581Z,42.87
2018-11-20T14:38:31.563Z,35.50
2018-11-20T14:41:27.638Z,36.77
2018-11-20T14:44:05.229Z,40.70
2018-11-20T14:46:48.727Z,37.07
2018-11-20T14:49:40.786Z,42.33
2018-11-20T14:52:28.406Z,41.80
2018-11-20T14:55:20.271Z,34.67
2018-11-20T14:57:58.353Z,44.70
2018-11-20T15:01:04.690Z,33.70
2018-11-20T15:03:51.182Z,42.17
2018-11-20T15:06:47.869Z,53.67
2018-11-20T15:09:39.732Z,44.30
2018-11-20T15:12:38.954Z,36.70
2018-11-20T15:15:26.433Z,40.73
2018-11-20T15:18:21.079Z,35.73
2018-11-20T15:21:00.277Z,35.97
2018-11-20T15:23:46.548Z,35.43
2018-11-20T15:26:32.482Z,42.70
2018-11-20T15:29:25.863Z,31.63
2018-11-20T15:32:20.623Z,28.03
2018-11-20T15:35:03.681Z,37.07
2018-11-20T15:38:03.039Z,32.53
2018-11-20T15:40:49.573Z,37.03
2018-11-20T15:43:36.040Z,33.53
2018-11-20T15:46:39.170Z,32.90
2018-11-20T15:49:35.677Z,30.93
2018-11-20T15:52:28.836Z,20.73
2018-11-20T15:55:15.006Z,24.97
2018-11-20T15:58:01.059Z,28.57
2018-11-20T16:00:52.435Z,25.30
2018-11-20T16:03:37.550Z,26.03
2018-11-20T16:06:28.159Z,19.03
2018-11-20T16:09:27.351Z,19.90
2018-11-20T16:12:32.999Z,23.43
2018-11-20T16:15:21.883Z,21.57
2018-11-20T16:18:18.064Z,19.10
2018-11-20T16:21:15.012Z,18.00
2018-11-20T16:24:01.492Z,17.10
2018-11-20T16:27:06.977Z,21.53
2018-11-20T16:30:12.567Z,22.73
2018-11-20T16:33:05.790Z,29.10
2018-11-20T16:35:51.837Z,16.40
2018-11-20T16:38:50.088Z,17.77
2018-11-20T16:41:49.283Z,18.80
2018-11-20T16:44:41.811Z,15.83
2018-11-20T16:47:20.453Z,16.80
2018-11-20T16:50:04.408Z,16.53
2018-11-20T16:52:57.046Z,13.83
2018-11-20T16:55:37.349Z,20.67
2018-11-20T16:58:40.004Z,21.10
2018-11-20T17:01:26.195Z,14.17
2018-11-20T17:04:25.309Z,14.43
2018-11-20T17:07:28.272Z,15.63
2018-11-20T17:10:13.364Z,13.93
2018-11-20T17:12:59.938Z,19.60
2018-11-20T17:15:45.756Z,11.97
2018-11-20T17:18:25.101Z,18.43
2018-11-20T17:21:11.179Z,22.27
2018-11-20T17:23:57.284Z,16.10
2018-11-20T17:26:43.371Z,13.50
2018-11-20T17:29:29.800Z,13.57
2018-11-20T17:32:15.956Z,17.93
2018-11-20T17:35:01.955Z,13.73
2018-11-20T17:37:54.954Z,18.70
2018-11-20T17:40:41.017Z,21.83
2018-11-20T17:43:28.370Z,20.03
2018-11-20T17:46:07.608Z,21.70
2018-11-20T17:48:50.065Z,17.03
2018-11-20T17:51:36.072Z,18.40
2018-11-20T17:54:32.991Z,15.87
2018-11-20T17:57:25.996Z,14.73
2018-11-20T18:00:25.279Z,18.50
2018-11-20T18:03:11.602Z,17.17
2018-11-20T18:05:58.991Z,19.80
2018-11-20T18:08:46.326Z,33.60
2018-11-20T18:11:32.763Z,29.30
2018-11-20T18:14:22.874Z,27.77
2018-11-20T18:17:08.937Z,20.90
2018-11-20T18:19:55.793Z,21.53
2018-11-20T18:22:35.327Z,19.30
2018-11-20T18:25:21.929Z,19.20
2018-11-20T18:28:18.484Z,17.23
2018-11-20T18:31:06.852Z,20.60
2018-11-20T18:33:45.552Z,17.00
2018-11-20T18:36:44.934Z,22.10
2018-11-20T18:39:38.078Z,16.80
2018-11-20T18:42:24.635Z,27.93
2018-11-20T18:45:10.457Z,20.80
2018-11-20T18:48:16.139Z,21.33
2018-11-20T18:51:02.353Z,19.43
2018-11-20T18:53:52.818Z,22.57
2018-11-20T18:56:40.204Z,25.83
2018-11-20T18:59:33.659Z,22.03
2018-11-20T19:02:24.029Z,28.20
2018-11-20T19:05:10.104Z,19.37
2018-11-20T19:07:56.167Z,23.40
2018-11-20T19:10:42.851Z,24.30
2018-11-20T19:13:28.950Z,26.43
2018-11-20T19:16:25.160Z,20.80
2018-11-20T19:19:16.482Z,22.37
2018-11-20T19:22:00.845Z,19.50
2018-11-20T19:24:47.424Z,23.13
2018-11-20T19:27:33.524Z,24.97
2018-11-20T19:30:20.300Z,23.27
2018-11-20T19:33:06.706Z,26.97
2018-11-20T19:35:52.638Z,24.00
2018-11-20T19:38:38.791Z,26.40
2018-11-20T19:41:24.677Z,21.07
2018-11-20T19:44:10.620Z,24.10
2018-11-20T19:47:10.007Z,20.70
2018-11-20T19:49:56.002Z,25.13
2018-11-20T19:52:50.500Z,26.10
2018-11-20T19:55:37.117Z,22.30
2018-11-20T19:58:24.749Z,28.10
2018-11-20T20:01:10.873Z,24.83
2018-11-20T20:03:45.754Z,24.97
2018-11-20T20:06:28.720Z,28.87
2018-11-20T20:09:19.100Z,31.23
2018-11-20T20:12:01.210Z,25.63
2018-11-20T20:15:00.239Z,31.47
2018-11-20T20:18:02.849Z,27.10
2018-11-20T20:20:55.817Z,24.03
2018-11-20T20:23:45.954Z,28.27
2018-11-20T20:26:33.586Z,30.60
2018-11-20T20:29:19.885Z,30.97
2018-11-20T20:32:10.063Z,28.77
2018-11-20T20:34:55.803Z,31.50
2018-11-20T20:37:37.519Z,30.93
2018-11-20T20:40:23.828Z,27.77
2018-11-20T20:43:11.282Z,32.33
2018-11-20T20:45:58.664Z,21.30
2018-11-20T20:48:46.074Z,29.80
2018-11-20T20:51:24.073Z,33.43
2018-11-20T20:54:12.549Z,26.63
2018-11-20T20:57:06.814Z,26.90
2018-11-20T21:00:00.237Z,23.70
2018-11-20T21:02:53.161Z,25.13
2018-11-20T21:05:39.396Z,26.17
2018-11-20T21:08:29.341Z,33.57
2018-11-20T21:11:16.725Z,31.50
2018-11-20T21:14:12.553Z,28.23
2018-11-20T21:16:59.925Z,24.90
2018-11-20T21:19:56.352Z,28.50
2018-11-20T21:22:42.674Z,27.43
2018-11-20T21:25:28.538Z,28.03
2018-11-20T21:28:14.290Z,28.37
2018-11-20T21:30:49.969Z,28.57
2018-11-20T21:33:36.208Z,29.73
2018-11-20T21:36:23.928Z,39.03
2018-11-20T21:39:17.201Z,28.30
2018-11-20T21:42:11.281Z,31.27
2018-11-20T21:44:47.721Z,27.03
2018-11-20T21:47:24.252Z,24.70
2018-11-20T21:50:17.351Z,27.73
2018-11-20T21:53:10.863Z,30.50
2018-11-20T21:55:56.076Z,27.90
2018-11-20T21:58:46.021Z,25.47
2018-11-20T22:01:32.273Z,34.50
2018-11-20T22:04:28.792Z,33.13
2018-11-20T22:07:15.351Z,32.30
2018-11-20T22:10:17.214Z,33.37
2018-11-20T22:13:03.243Z,31.07
2018-11-20T22:15:58.430Z,31.20
2018-11-20T22:18:51.017Z,27.43
2018-11-20T22:21:41.236Z,31.30
2018-11-20T22:24:27.359Z,26.43
2018-11-20T22:27:13.216Z,25.83
2018-11-20T22:29:58.886Z,28.00
2018-11-20T22:32:38.270Z,31.07
2018-11-20T22:35:24.378Z,34.40
2018-11-20T22:38:20.751Z,27.77
2018-11-20T22:41:19.979Z,30.83
2018-11-20T22:44:07.340Z,26.23
2018-11-20T22:47:13.256Z,29.23
2018-11-20T22:50:03.110Z,19.27
2018-11-20T22:52:47.090Z,21.63
2018-11-20T22:55:34.761Z,22.23
2018-11-20T22:58:24.476Z,24.80
2018-11-20T23:01:15.010Z,22.27
2018-11-20T23:04:01.243Z,29.80
2018-11-20T23:06:46.170Z,20.50
2018-11-20T23:09:14.367Z,25.03
2018-11-20T23:11:42.536Z,24.90
2018-11-20T23:14:10.681Z,26.63
2018-11-20T23:16:38.886Z,28.97
2018-11-20T23:19:07.255Z,24.43
2018-11-20T23:21:35.424Z,25.97
2018-11-20T23:24:03.626Z,20.80
2018-11-20T23:26:31.772Z,21.77
2018-11-20T23:28:59.963Z,21.10
2018-11-20T23:31:28.363Z,24.60
2018-11-20T23:33:56.502Z,23.03
2018-11-20T23:36:24.647Z,22.97
2018-11-20T23:38:52.842Z,24.03
2018-11-20T23:41:22.868Z,25.27
2018-11-20T23:43:50.984Z,22.87
2018-11-20T23:46:19.188Z,19.10
2018-11-20T23:48:47.332Z,23.50
2018-11-20T23:51:15.513Z,25.83
2018-11-20T23:53:43.719Z,21.83
2018-11-20T23:56:11.864Z,20.27
2018-11-20T23:58:40.155Z,21.07
